Time;durP1;ratioP1;P1;durP2;ratioP2;P2;SDS_P1;SDS_P2;PMS_P1;PMS_P2;Temp;Humidity;BMP_temperature;BMP_pressure;BME280_temperature;BME280_humidity;BME280_pressure;Samples;Min_cycle;Max_cycle;Signal;HPM_P1;HPM_P2
2023/08/20 11:43:47;;;;;;;5.72;2.17;;;;;;;30.16;47.97;101421.09;5118887;22;20071;-64
2023/08/20 11:46:15;;;;;;;3.38;2.22;;;;;;;30.54;46.79;101421.50;5097162;27;20047;-67
2023/08/20 11:49:05;;;;;;;4.90;2.50;;;;;;;30.65;45.11;101414.66;5096207;27;20135;-66
2023/08/20 11:51:36;;;;;;;2.15;1.92;;;;;;;30.83;45.12;101424.97;5097564;28;20378;-64
2023/08/20 11:54:17;;;;;;;3.90;2.33;;;;;;;30.93;45.74;101414.53;5096681;28;20043;-65
2023/08/20 11:56:51;;;;;;;2.40;2.20;;;;;;;31.15;43.74;101426.09;5091122;28;20054;-65
2023/08/20 11:59:20;;;;;;;3.17;2.47;;;;;;;31.11;43.24;101424.84;5084199;28;20112;-65
2023/08/20 12:01:51;;;;;;;3.08;2.53;;;;;;;31.32;42.76;101432.84;5083416;28;20058;-66
2023/08/20 12:04:24;;;;;;;3.13;2.40;;;;;;;31.43;43.24;101428.66;5056416;28;20142;-65
2023/08/20 12:07:09;;;;;;;2.50;1.92;;;;;;;31.70;43.58;101422.19;5084383;28;20144;-65
2023/08/20 12:09:36;;;;;;;5.78;2.20;;;;;;;31.92;43.74;101414.63;5088390;28;20143;-66
2023/08/20 12:12:05;;;;;;;3.50;2.22;;;;;;;31.88;43.17;101418.00;5081578;28;20386;-66
2023/08/20 12:14:33;;;;;;;4.50;2.60;;;;;;;32.14;43.05;101408.94;5065982;28;20129;-66
2023/08/20 12:17:00;;;;;;;1.98;1.77;;;;;;;32.40;42.50;101405.34;5084344;28;20062;-66
2023/08/20 12:19:28;;;;;;;3.20;1.85;;;;;;;32.68;41.33;101408.53;5088734;28;20052;-67
2023/08/20 12:21:55;;;;;;;3.33;2.15;;;;;;;32.71;40.88;101401.84;5091575;28;20066;-65
2023/08/20 12:24:22;;;;;;;3.42;2.30;;;;;;;32.88;41.57;101403.00;5087597;28;20048;-66
2023/08/20 12:26:49;;;;;;;4.18;2.13;;;;;;;33.13;41.16;101403.06;5085690;28;20056;-65
2023/08/20 12:29:17;;;;;;;3.60;2.17;;;;;;;33.16;40.28;101405.34;5066666;28;20512;-66
2023/08/20 12:31:44;;;;;;;5.80;2.17;;;;;;;33.12;40.30;101401.41;5085506;28;20499;-66
2023/08/20 12:34:11;;;;;;;3.38;2.25;;;;;;;33.34;40.35;101398.31;5068046;28;20062;-66
2023/08/20 12:36:38;;;;;;;3.35;2.20;;;;;;;33.75;40.42;101409.50;5080101;28;20135;-66
2023/08/20 12:39:06;;;;;;;2.83;2.28;;;;;;;33.82;39.52;101408.59;5081499;28;20044;-67
2023/08/20 12:41:35;;;;;;;2.42;1.90;;;;;;;33.74;37.09;101407.00;5080547;28;20048;-67
2023/08/20 12:44:02;;;;;;;3.42;2.20;;;;;;;33.56;37.60;101402.34;5080604;28;20052;-65
2023/08/20 12:46:30;;;;;;;2.95;2.10;;;;;;;33.71;37.53;101400.09;5079964;28;20087;-64
2023/08/20 12:48:57;;;;;;;3.60;1.80;;;;;;;33.96;37.70;101399.25;5082220;28;20061;-67
2023/08/20 12:51:24;;;;;;;3.38;2.55;;;;;;;34.15;37.08;101406.38;5084438;28;20532;-67
2023/08/20 12:53:52;;;;;;;4.90;2.22;;;;;;;34.23;35.90;101408.81;5081259;28;20475;-67
2023/08/20 12:56:19;;;;;;;3.22;1.88;;;;;;;33.45;35.95;101411.25;5078280;28;20124;-67
2023/08/20 12:58:46;;;;;;;2.95;2.10;;;;;;;33.73;36.07;101411.63;5080849;28;20135;-67
2023/08/20 13:01:13;;;;;;;4.60;2.15;;;;;;;33.81;35.54;101394.09;5082647;28;20062;-67
2023/08/20 13:03:41;;;;;;;3.70;2.17;;;;;;;33.99;34.94;101399.63;5068722;28;20569;-67
2023/08/20 13:06:09;;;;;;;5.65;2.08;;;;;;;33.75;34.98;101400.47;5065341;28;20044;-66
2023/08/20 13:08:36;;;;;;;2.38;1.92;;;;;;;33.91;34.24;101388.13;5084459;28;20500;-67
2023/08/20 13:11:06;;;;;;;3.75;1.90;;;;;;;34.15;34.51;101387.25;5082034;28;20048;-66
2023/08/20 13:13:34;;;;;;;3.53;1.80;;;;;;;34.41;34.02;101396.22;5084912;28;20052;-67
2023/08/20 13:16:02;;;;;;;4.57;1.75;;;;;;;34.52;33.08;101395.44;5083171;28;20048;-67
2023/08/20 13:18:30;;;;;;;1.90;1.70;;;;;;;34.43;32.99;101400.38;5082323;28;20070;-66
2023/08/20 13:20:57;;;;;;;4.47;1.92;;;;;;;34.04;33.80;101401.66;5079480;28;20079;-66
2023/08/20 13:23:24;;;;;;;2.78;1.90;;;;;;;34.45;33.30;101405.59;5047990;28;20569;-66
2023/08/20 13:25:52;;;;;;;2.70;2.13;;;;;;;34.19;34.28;101404.03;5082726;28;20135;-64
2023/08/20 13:28:19;;;;;;;3.10;1.90;;;;;;;34.56;33.18;101399.41;5083208;28;20050;-66
2023/08/20 13:30:46;;;;;;;4.13;2.10;;;;;;;35.19;32.52;101403.56;5082428;28;20139;-66
2023/08/20 13:33:14;;;;;;;2.45;1.90;;;;;;;35.81;31.62;101408.66;5086663;28;20058;-66
2023/08/20 13:35:41;;;;;;;2.60;1.95;;;;;;;36.30;30.36;101392.72;5077703;28;20499;-66
2023/08/20 13:38:09;;;;;;;3.83;1.95;;;;;;;36.74;30.88;101392.00;5081571;28;20145;-66
2023/08/20 13:40:36;;;;;;;2.67;1.85;;;;;;;37.08;28.30;101397.59;5089133;28;20048;-65
2023/08/20 13:43:04;;;;;;;4.57;2.10;;;;;;;37.43;27.89;101399.31;5086168;28;20052;-66
2023/08/20 13:45:31;;;;;;;2.72;1.70;;;;;;;37.21;27.71;101399.19;5088532;28;20627;-66
2023/08/20 13:47:58;;;;;;;3.00;2.10;;;;;;;35.65;29.55;101405.53;5081855;28;20068;-66
2023/08/20 13:50:26;;;;;;;3.15;1.75;;;;;;;35.31;30.30;101398.13;5072324;28;20080;-67
2023/08/20 13:52:53;;;;;;;6.00;1.80;;;;;;;35.65;29.18;101410.19;5089199;28;20062;-67
2023/08/20 13:55:21;;;;;;;2.97;1.75;;;;;;;35.18;29.17;101397.25;5080012;28;20058;-66
2023/08/20 13:57:48;;;;;;;7.70;2.38;;;;;;;35.16;29.98;101402.13;5077670;28;20098;-66
2023/08/20 14:00:16;;;;;;;3.00;1.55;;;;;;;34.98;29.49;101399.47;5082908;28;20055;-66
2023/08/20 14:02:43;;;;;;;5.68;2.10;;;;;;;34.69;29.38;101393.75;5086828;28;20081;-66
2023/08/20 14:05:11;;;;;;;3.28;1.85;;;;;;;34.64;30.00;101399.09;5093398;28;20534;-67
2023/08/20 14:07:38;;;;;;;4.97;1.70;;;;;;;33.87;31.08;101395.13;5086060;28;20052;-65
2023/08/20 14:10:06;;;;;;;4.53;1.90;;;;;;;33.37;32.57;101400.56;5082728;28;20044;-66
2023/08/20 14:12:33;;;;;;;4.40;1.90;;;;;;;34.60;30.56;101394.31;5087184;28;20048;-67
2023/08/20 14:15:06;;;;;;;3.20;1.90;;;;;;;37.42;28.21;101390.22;5086611;28;20048;-67
2023/08/20 14:17:33;;;;;;;4.57;3.85;;;;;;;40.36;24.24;101400.91;5087273;28;20041;-67
2023/08/20 14:20:00;;;;;;;5.15;3.00;;;;;;;42.82;20.76;101406.97;5086486;28;20082;-65
2023/08/20 14:22:28;;;;;;;3.33;2.85;;;;;;;42.88;20.03;101400.28;5087382;28;20534;-66
2023/08/20 14:24:55;;;;;;;3.88;3.10;;;;;;;42.33;20.02;101399.47;5086940;28;20130;-66
2023/08/20 14:27:22;;;;;;;3.35;2.55;;;;;;;40.88;20.87;101402.69;5088104;28;20051;-65
2023/08/20 14:29:50;;;;;;;5.90;2.25;;;;;;;39.32;22.14;101401.66;5080744;28;20083;-65
2023/08/20 14:32:17;;;;;;;2.85;2.10;;;;;;;37.86;22.24;101395.00;5081233;28;20487;-65
2023/08/20 14:34:44;;;;;;;2.05;1.90;;;;;;;37.20;23.59;101384.63;5082243;28;20544;-65
2023/08/20 14:37:13;;;;;;;3.55;1.60;;;;;;;36.24;24.06;101383.56;5078767;28;20139;-66
2023/08/20 14:39:40;;;;;;;2.10;1.80;;;;;;;37.38;22.46;101386.31;5072764;28;20071;-65
2023/08/20 14:42:07;;;;;;;2.35;1.73;;;;;;;37.02;23.13;101373.88;5083293;28;20592;-65
2023/08/20 14:44:35;;;;;;;3.45;2.00;;;;;;;36.20;23.30;101371.44;5080134;28;20047;-66
2023/08/20 14:47:04;;;;;;;2.22;1.55;;;;;;;36.08;23.83;101376.13;5081027;28;20488;-63
2023/08/20 14:49:31;;;;;;;2.38;1.42;;;;;;;35.63;24.55;101383.06;5084232;28;20056;-64
2023/08/20 14:52:02;;;;;;;2.08;1.50;;;;;;;34.44;26.24;101365.66;5067016;28;20048;-66
2023/08/20 14:54:46;;;;;;;3.13;1.70;;;;;;;34.04;26.32;101368.88;5085711;28;20139;-64
2023/08/20 14:57:15;;;;;;;3.10;1.60;;;;;;;34.32;27.10;101368.34;5064760;28;20044;-65
2023/08/20 14:59:43;;;;;;;3.20;1.80;;;;;;;36.18;25.05;101368.09;5085963;28;20059;-66
2023/08/20 15:02:10;;;;;;;2.63;1.77;;;;;;;36.12;24.96;101369.09;5088759;28;20060;-65
2023/08/20 15:04:37;;;;;;;4.35;1.60;;;;;;;35.42;26.18;101368.00;5082095;28;20044;-67
2023/08/20 15:07:04;;;;;;;3.17;1.65;;;;;;;34.85;26.91;101370.34;5080723;28;20040;-66
2023/08/20 15:09:32;;;;;;;3.22;1.90;;;;;;;34.58;27.88;101364.44;5082744;28;20051;-66
2023/08/20 15:11:59;;;;;;;3.67;1.60;;;;;;;34.17;28.72;101357.78;5053367;28;20056;-66
2023/08/20 15:14:26;;;;;;;4.20;1.75;;;;;;;33.51;29.69;101356.59;5087822;28;20075;-66
2023/08/20 15:16:53;;;;;;;3.67;1.70;;;;;;;33.43;30.14;101354.16;5081325;28;20109;-66
2023/08/20 15:19:21;;;;;;;3.63;1.70;;;;;;;34.07;29.69;101362.97;5085073;28;20044;-64
2023/08/20 15:21:48;;;;;;;2.72;1.80;;;;;;;35.79;27.67;101353.25;5084436;28;20618;-67
2023/08/20 15:24:16;;;;;;;2.90;1.83;;;;;;;36.97;26.35;101366.41;5085658;28;20071;-67
2023/08/20 15:26:43;;;;;;;2.15;1.77;;;;;;;37.96;25.14;101364.91;5095351;28;20056;-66
2023/08/20 15:29:11;;;;;;;3.97;2.10;;;;;;;39.96;23.31;101361.00;5099308;28;20694;-67
2023/08/20 15:31:38;;;;;;;5.72;2.50;;;;;;;42.39;20.48;101356.84;5090713;28;20062;-66
2023/08/20 15:34:05;;;;;;;3.50;2.92;;;;;;;44.38;18.90;101366.84;5081521;28;20053;-64
2023/08/20 15:36:32;;;;;;;4.50;3.92;;;;;;;46.13;16.89;101373.78;5082481;28;20098;-66
2023/08/20 15:39:00;;;;;;;5.70;5.30;;;;;;;46.99;16.54;101373.72;5083810;28;20052;-66
2023/08/20 15:41:27;;;;;;;7.32;6.72;;;;;;;48.04;15.25;101375.88;5084371;28;20052;-66
2023/08/20 15:43:54;;;;;;;8.88;8.27;;;;;;;49.30;14.70;101366.44;5080450;28;20464;-67
2023/08/20 15:46:23;;;;;;;9.70;9.10;;;;;;;50.22;13.64;101371.44;5076042;28;20056;-68
2023/08/20 15:48:50;;;;;;;11.98;11.27;;;;;;;51.65;13.09;101368.97;5085257;28;20052;-66
2023/08/20 15:51:18;;;;;;;13.95;13.15;;;;;;;50.87;12.16;101367.09;5081097;28;20613;-65
2023/08/20 15:53:46;;;;;;;18.77;17.65;;;;;;;50.37;12.93;101367.19;5080507;28;20084;-64
2023/08/20 15:56:13;;;;;;;17.60;16.52;;;;;;;49.06;14.11;101361.41;5091200;28;20067;-66
2023/08/20 15:58:40;;;;;;;16.83;15.82;;;;;;;49.46;13.77;101366.75;5085900;28;20531;-65
2023/08/20 16:01:08;;;;;;;19.33;17.95;;;;;;;49.13;13.45;101361.75;5086922;28;20396;-66
2023/08/20 16:03:35;;;;;;;16.02;15.02;;;;;;;47.66;14.53;101358.84;5088616;28;20073;-66
2023/08/20 16:06:04;;;;;;;15.00;13.98;;;;;;;47.93;14.92;101357.78;5087853;28;20154;-65
2023/08/20 16:08:31;;;;;;;14.73;13.73;;;;;;;49.73;13.41;101353.44;5080661;28;20050;-65
2023/08/20 16:10:58;;;;;;;17.38;16.27;;;;;;;49.97;13.25;101364.84;5085501;28;20148;-64
2023/08/20 16:13:26;;;;;;;16.05;15.00;;;;;;;50.10;12.26;101355.34;5086107;28;20062;-66
2023/08/20 16:15:53;;;;;;;18.45;17.33;;;;;;;50.92;11.81;101355.66;5088746;28;20079;-65
2023/08/20 16:18:20;;;;;;;18.83;17.60;;;;;;;49.42;12.68;101357.38;5093200;28;20044;-66
2023/08/20 16:20:47;;;;;;;17.77;16.83;;;;;;;48.15;13.76;101362.44;5086514;28;20561;-66
2023/08/20 16:23:14;;;;;;;15.13;14.23;;;;;;;48.60;13.32;101356.56;5088166;28;20047;-65
2023/08/20 16:25:42;;;;;;;14.65;13.55;;;;;;;49.86;12.73;101353.22;5080675;28;20052;-66
2023/08/20 16:28:10;;;;;;;14.48;13.48;;;;;;;49.74;12.70;101355.09;5084817;28;20135;-65
2023/08/20 16:30:38;;;;;;;15.38;14.57;;;;;;;49.46;12.78;101347.16;5088072;28;20069;-64
2023/08/20 16:33:10;;;;;;;11.98;11.27;;;;;;;47.17;14.26;101353.16;5077010;28;20060;-64
2023/08/20 16:35:38;;;;;;;9.68;9.02;;;;;;;44.27;16.88;101347.84;5057771;28;20066;-65
2023/08/20 16:38:05;;;;;;;7.78;6.95;;;;;;;41.51;19.42;101341.66;5062343;28;20040;-66
2023/08/20 16:40:32;;;;;;;5.68;5.18;;;;;;;39.37;21.61;101335.56;5061278;28;20048;-66
2023/08/20 16:43:01;;;;;;;4.78;4.20;;;;;;;37.81;23.11;101331.69;5081500;28;20059;-71
2023/08/20 16:45:29;;;;;;;5.85;3.53;;;;;;;36.74;24.33;101331.63;5087077;28;20068;-66
2023/08/20 16:47:56;;;;;;;3.70;3.08;;;;;;;35.78;25.62;101327.78;5075058;28;20057;-65
2023/08/20 16:50:23;;;;;;;6.72;3.15;;;;;;;35.01;27.02;101334.16;5080845;28;20143;-65
2023/08/20 16:52:51;;;;;;;3.17;2.38;;;;;;;34.23;28.00;101337.78;5082504;28;20070;-65
2023/08/20 16:55:19;;;;;;;4.60;2.53;;;;;;;33.64;29.01;101324.75;5088476;28;20060;-65
2023/08/20 16:57:46;;;;;;;6.60;2.55;;;;;;;32.95;29.79;101329.34;5080327;28;20464;-66
2023/08/20 17:00:14;;;;;;;4.47;2.05;;;;;;;32.55;30.11;101326.84;5082037;28;20056;-65
2023/08/20 17:02:41;;;;;;;3.17;1.92;;;;;;;31.93;31.15;101325.63;5083292;28;20056;-66
2023/08/20 17:05:09;;;;;;;6.88;2.22;;;;;;;31.69;31.40;101322.50;5085581;28;20079;-64
2023/08/20 17:07:36;;;;;;;3.80;2.22;;;;;;;31.42;32.00;101339.94;5081524;28;20059;-64
2023/08/20 17:10:05;;;;;;;4.22;1.75;;;;;;;31.02;33.45;101329.84;5081664;28;20044;-64
2023/08/20 17:12:33;;;;;;;4.70;1.83;;;;;;;30.78;33.38;101333.19;5069509;28;20352;-65
2023/08/20 17:15:01;;;;;;;7.10;2.20;;;;;;;30.61;34.07;101337.28;5069798;28;20141;-65
2023/08/20 17:17:29;;;;;;;4.50;1.88;;;;;;;30.32;34.58;101338.47;5077429;28;20050;-66
2023/08/20 17:19:56;;;;;;;3.22;1.80;;;;;;;30.10;35.19;101332.25;5085083;28;20466;-65
2023/08/20 17:22:23;;;;;;;5.03;2.10;;;;;;;29.92;35.28;101336.34;5084477;28;20059;-66
2023/08/20 17:24:51;;;;;;;5.47;1.63;;;;;;;29.75;35.92;101340.41;5080639;28;20479;-66
2023/08/20 17:27:18;;;;;;;4.88;2.97;;;;;;;29.57;36.15;101338.22;5080851;28;20048;-66
2023/08/20 17:29:47;;;;;;;3.88;1.85;;;;;;;29.41;37.00;101343.91;5069314;28;20051;-66
2023/08/20 17:32:14;;;;;;;4.25;1.85;;;;;;;29.20;37.07;101337.47;5085240;28;20067;-65
2023/08/20 17:34:41;;;;;;;7.38;2.53;;;;;;;28.97;36.82;101342.28;5082077;28;20126;-65
2023/08/20 17:37:09;;;;;;;4.78;1.85;;;;;;;28.81;37.06;101342.50;5090335;28;20062;-64
2023/08/20 17:39:36;;;;;;;8.43;2.05;;;;;;;28.65;37.66;101336.31;5084764;28;20055;-65
2023/08/20 17:42:03;;;;;;;5.97;2.80;;;;;;;28.48;38.35;101342.97;5081530;28;20048;-65
2023/08/20 17:44:30;;;;;;;8.60;3.30;;;;;;;28.27;39.02;101344.56;5082716;28;20063;-64
2023/08/20 17:46:57;;;;;;;3.00;1.95;;;;;;;28.15;39.06;101346.09;5082093;28;20059;-65
2023/08/20 17:49:25;;;;;;;5.22;2.42;;;;;;;28.01;39.39;101341.53;5081346;28;20856;-65
2023/08/20 17:51:52;;;;;;;9.13;2.67;;;;;;;27.85;39.20;101342.53;5083792;28;20131;-65
2023/08/20 17:54:19;;;;;;;3.00;2.03;;;;;;;27.71;40.29;101349.59;5087067;28;20047;-64
2023/08/20 17:56:46;;;;;;;3.65;2.30;;;;;;;27.60;40.75;101350.03;5077524;28;20400;-65
2023/08/20 17:59:13;;;;;;;5.25;2.17;;;;;;;27.47;40.71;101348.00;5078164;28;20074;-65
2023/08/20 18:01:40;;;;;;;4.60;2.30;;;;;;;27.36;40.61;101344.88;5081744;28;20062;-65
2023/08/20 18:04:08;;;;;;;8.10;3.67;;;;;;;27.26;42.19;101358.66;5087774;28;20051;-65
2023/08/20 18:06:35;;;;;;;8.25;3.83;;;;;;;27.16;41.80;101360.78;5080119;28;20365;-66
2023/08/20 18:09:02;;;;;;;5.50;3.22;;;;;;;27.09;43.06;101365.19;5077729;28;20040;-64
2023/08/20 18:11:29;;;;;;;5.88;2.88;;;;;;;26.94;43.08;101360.56;5084483;28;20442;-66
2023/08/20 18:13:56;;;;;;;6.70;2.25;;;;;;;26.85;43.49;101364.34;5057966;28;20060;-64
2023/08/20 18:16:24;;;;;;;5.57;2.20;;;;;;;26.76;43.69;101365.41;5078632;28;20400;-67
2023/08/20 18:18:51;;;;;;;5.13;2.50;;;;;;;26.67;43.85;101367.31;5082986;28;20062;-67
2023/08/20 18:21:18;;;;;;;5.82;2.33;;;;;;;26.58;44.30;101371.06;5083380;28;20052;-66
2023/08/20 18:23:46;;;;;;;4.95;2.40;;;;;;;26.48;44.52;101370.47;5083556;28;20138;-64
2023/08/20 18:26:13;;;;;;;5.80;2.05;;;;;;;26.42;44.77;101368.41;5081306;28;20056;-65
2023/08/20 18:28:40;;;;;;;4.97;2.00;;;;;;;26.35;45.07;101376.38;5084435;28;20050;-67
2023/08/20 18:31:08;;;;;;;5.65;2.83;;;;;;;26.30;45.87;101378.78;5087840;28;20516;-66
2023/08/20 18:33:36;;;;;;;4.93;2.50;;;;;;;26.22;46.04;101381.50;5083778;28;20060;-67
2023/08/20 18:36:04;;;;;;;7.95;2.60;;;;;;;26.15;46.61;101392.13;5070731;28;20131;-67
2023/08/20 18:38:31;;;;;;;4.70;2.45;;;;;;;26.08;47.46;101399.25;5073858;28;20084;-66
2023/08/20 18:41:01;;;;;;;3.85;2.10;;;;;;;26.01;47.55;101390.16;5084522;28;20179;-67
2023/08/20 18:43:28;;;;;;;5.45;2.00;;;;;;;25.96;47.17;101392.53;5077753;28;20056;-67
2023/08/20 18:45:56;;;;;;;4.80;2.30;;;;;;;25.91;47.33;101408.41;5065945;28;20127;-65
2023/08/20 18:48:23;;;;;;;7.75;3.03;;;;;;;25.85;47.96;101404.53;5086553;28;20549;-68
2023/08/20 18:50:50;;;;;;;7.20;2.40;;;;;;;25.81;49.35;101410.44;5087262;28;20118;-65
2023/08/20 18:53:18;;;;;;;5.90;2.25;;;;;;;25.75;48.44;101412.75;5090449;28;20063;-68
2023/08/20 18:55:45;;;;;;;5.13;2.17;;;;;;;25.70;48.35;101412.44;5098301;28;20056;-67
2023/08/20 18:58:12;;;;;;;7.68;2.50;;;;;;;25.67;49.26;101414.66;5089682;28;20062;-65
2023/08/20 19:00:39;;;;;;;6.72;2.22;;;;;;;25.62;49.43;101417.00;5073210;28;20146;-66
2023/08/20 19:03:06;;;;;;;6.57;2.78;;;;;;;25.58;49.06;101421.03;5088799;28;20419;-65
2023/08/20 19:05:34;;;;;;;5.55;2.22;;;;;;;25.54;48.88;101428.63;5088692;28;20052;-67
2023/08/20 19:08:03;;;;;;;5.60;2.35;;;;;;;25.51;49.23;101431.66;5081922;28;20048;-67
2023/08/20 19:10:30;;;;;;;8.38;2.50;;;;;;;25.46;49.95;101428.63;5085976;28;20058;-67
2023/08/20 19:12:57;;;;;;;5.25;2.40;;;;;;;25.43;49.87;101437.03;5086533;28;20050;-66
2023/08/20 19:15:24;;;;;;;6.03;2.47;;;;;;;25.41;50.06;101434.53;5090278;28;20062;-69
2023/08/20 19:17:52;;;;;;;4.80;2.42;;;;;;;25.38;50.06;101440.25;5085704;28;20067;-64
2023/08/20 19:20:19;;;;;;;7.15;2.30;;;;;;;25.38;50.18;101442.09;5091862;28;20156;-65
2023/08/20 19:22:46;;;;;;;5.03;2.80;;;;;;;25.32;50.52;101440.94;5064027;28;20052;-68
2023/08/20 19:25:13;;;;;;;5.80;2.90;;;;;;;25.26;50.93;101433.50;5084256;28;20048;-66
2023/08/20 19:27:41;;;;;;;6.78;3.50;;;;;;;25.23;50.46;101439.22;5085319;28;20562;-68
2023/08/20 19:30:08;;;;;;;5.75;2.92;;;;;;;25.21;51.32;101433.16;5088372;28;20058;-69
2023/08/20 19:32:35;;;;;;;9.57;3.63;;;;;;;25.19;50.97;101436.03;5084766;28;20056;-68
2023/08/20 19:35:05;;;;;;;13.30;11.93;;;;;;;25.17;52.21;101435.34;5084383;28;20044;-52
2023/08/20 19:37:33;;;;;;;24.30;21.23;;;;;;;25.13;52.64;101431.31;5080831;28;20059;-55
2023/08/20 19:40:00;;;;;;;16.13;14.40;;;;;;;25.13;52.78;101433.16;5080168;28;20044;-55
2023/08/20 19:42:28;;;;;;;18.88;15.40;;;;;;;25.12;53.01;101434.16;5081032;28;20044;-65
2023/08/20 19:44:55;;;;;;;11.48;6.40;;;;;;;25.09;53.83;101429.94;5083477;28;20052;-67
2023/08/20 19:47:22;;;;;;;4.72;2.83;;;;;;;25.06;53.72;101434.78;5090585;28;20078;-68
2023/08/20 19:49:50;;;;;;;5.05;3.03;;;;;;;25.03;53.22;101427.88;5086211;28;20065;-65
2023/08/20 19:52:18;;;;;;;5.70;2.85;;;;;;;25.00;53.82;101433.59;5088673;28;20048;-68
2023/08/20 19:54:46;;;;;;;7.65;2.80;;;;;;;24.94;53.72;101437.78;5066901;28;20134;-66
2023/08/20 19:57:13;;;;;;;4.13;2.50;;;;;;;24.92;54.04;101436.28;5083271;28;20143;-66
2023/08/20 19:59:40;;;;;;;6.95;2.80;;;;;;;24.89;54.33;101441.97;5091202;28;20467;-65
2023/08/20 20:02:08;;;;;;;4.70;2.53;;;;;;;24.87;54.54;101441.31;5075083;28;20051;-68
2023/08/20 20:04:35;;;;;;;3.92;2.40;;;;;;;24.83;54.45;101448.03;5062112;28;20513;-66
2023/08/20 20:07:02;;;;;;;4.93;2.17;;;;;;;24.80;54.26;101445.66;5072371;28;20040;-65
2023/08/20 20:09:48;;;;;;;5.38;3.17;;;;;;;24.76;54.73;101453.22;5102336;28;20070;-66
2023/08/20 20:12:16;;;;;;;3.45;2.30;;;;;;;24.72;54.95;101443.75;5081629;28;20056;-65
2023/08/20 20:14:43;;;;;;;10.88;3.63;;;;;;;24.68;55.00;101451.34;5096191;28;20044;-67
2023/08/20 20:17:12;;;;;;;7.78;2.38;;;;;;;24.65;55.13;101450.81;5091824;28;20085;-67
2023/08/20 20:19:39;;;;;;;5.45;3.08;;;;;;;24.61;55.57;101442.22;5074265;28;20120;-65
2023/08/20 20:22:07;;;;;;;5.18;2.25;;;;;;;24.58;56.56;101444.38;5071391;28;20082;-66
2023/08/20 20:24:35;;;;;;;7.70;2.50;;;;;;;24.52;57.22;101435.13;5068890;28;20052;-67
2023/08/20 20:27:02;;;;;;;7.63;2.85;;;;;;;24.46;57.79;101431.22;5090981;28;20101;-66
2023/08/20 20:29:31;;;;;;;7.95;2.90;;;;;;;24.40;58.03;101429.16;5076506;28;20131;-64
2023/08/20 20:31:58;;;;;;;5.97;2.40;;;;;;;24.34;58.84;101435.16;5065238;28;20245;-66
2023/08/20 20:34:26;;;;;;;7.50;3.05;;;;;;;24.29;59.05;101442.03;5090332;28;20143;-67
2023/08/20 20:36:53;;;;;;;7.82;3.03;;;;;;;24.24;59.48;101448.75;5070986;28;20532;-67
2023/08/20 20:39:20;;;;;;;8.93;2.92;;;;;;;24.19;58.34;101436.78;5084929;28;20882;-68
2023/08/20 20:41:47;;;;;;;4.47;2.25;;;;;;;24.14;58.51;101439.94;5093151;28;20067;-65
2023/08/20 20:44:14;;;;;;;6.05;2.47;;;;;;;24.11;59.01;101451.03;5084026;28;20131;-66
2023/08/20 20:46:42;;;;;;;7.45;2.65;;;;;;;24.05;58.18;101450.81;5084990;28;20121;-67
2023/08/20 20:49:09;;;;;;;6.97;2.83;;;;;;;23.99;58.34;101449.59;5089550;28;20035;-67
2023/08/20 20:51:36;;;;;;;4.25;2.38;;;;;;;23.92;56.39;101448.53;5084054;28;20052;-68
2023/08/20 20:54:04;;;;;;;10.70;2.40;;;;;;;23.86;56.09;101449.16;5086822;28;20084;-67
2023/08/20 20:56:31;;;;;;;3.25;2.05;;;;;;;23.82;56.20;101443.28;5090372;28;20051;-66
2023/08/20 20:58:59;;;;;;;4.07;2.05;;;;;;;23.80;56.24;101447.94;5072461;28;20380;-66
2023/08/20 21:01:27;;;;;;;5.88;2.95;;;;;;;23.79;56.54;101448.13;5092881;28;20383;-68
2023/08/20 21:03:54;;;;;;;10.35;2.67;;;;;;;23.74;55.67;101444.03;5084198;28;20051;-67
2023/08/20 21:06:21;;;;;;;4.18;2.00;;;;;;;23.69;55.75;101435.59;5071458;28;20055;-66
2023/08/20 21:08:48;;;;;;;6.25;2.38;;;;;;;23.69;56.02;101427.53;5084824;28;20052;-67
2023/08/20 21:11:15;;;;;;;5.15;2.90;;;;;;;23.68;56.09;101428.53;5081719;28;20054;-65
2023/08/20 21:13:43;;;;;;;6.45;2.08;;;;;;;23.65;55.96;101430.69;5092774;28;20134;-67
2023/08/20 21:16:10;;;;;;;4.00;2.30;;;;;;;23.61;56.05;101426.59;5085425;28;20436;-66
2023/08/20 21:18:37;;;;;;;8.02;2.95;;;;;;;23.57;56.50;101439.50;5087238;28;20135;-67
2023/08/20 21:21:05;;;;;;;6.70;2.63;;;;;;;23.54;57.08;101436.28;5081930;28;20063;-66
2023/08/20 21:23:37;;;;;;;5.95;2.83;;;;;;;23.50;57.81;101436.59;5069897;28;20070;-66
2023/08/20 21:26:05;;;;;;;3.70;3.00;;;;;;;23.46;59.54;101437.91;5080328;28;20078;-68
2023/08/20 21:28:32;;;;;;;8.35;3.55;;;;;;;23.44;59.61;101441.72;5063973;28;20045;-67
2023/08/20 21:30:59;;;;;;;6.60;3.30;;;;;;;23.42;60.87;101449.13;5084073;28;20048;-68
2023/08/20 21:33:26;;;;;;;7.65;4.30;;;;;;;23.39;62.11;101452.09;5078459;28;20147;-67
2023/08/20 21:35:53;;;;;;;7.95;4.07;;;;;;;23.37;62.59;101454.97;5082614;28;20542;-67
2023/08/20 21:38:21;;;;;;;11.00;4.75;;;;;;;23.38;64.11;101463.84;5081703;28;20439;-68
2023/08/20 21:40:48;;;;;;;5.93;3.80;;;;;;;23.36;64.37;101464.00;5079103;28;20053;-67
2023/08/20 21:43:15;;;;;;;8.25;4.68;;;;;;;23.36;65.82;101461.31;5079390;28;20665;-68
2023/08/20 21:45:42;;;;;;;6.07;4.60;;;;;;;23.36;67.98;101463.16;5077939;28;20203;-66
2023/08/20 21:48:10;;;;;;;9.02;5.32;;;;;;;23.36;68.44;101468.53;5059077;28;20178;-67
2023/08/20 21:50:37;;;;;;;7.63;5.80;;;;;;;23.36;70.38;101474.75;5080168;28;20116;-66
2023/08/20 21:53:04;;;;;;;9.77;6.60;;;;;;;23.37;71.56;101472.91;5057973;28;20057;-67
2023/08/20 21:55:31;;;;;;;10.43;6.28;;;;;;;23.37;72.28;101472.91;5082082;28;20056;-69
2023/08/20 21:57:58;;;;;;;12.07;7.35;;;;;;;23.39;73.33;101479.81;5084793;28;20063;-67
2023/08/20 22:00:26;;;;;;;8.45;6.68;;;;;;;23.41;73.45;101475.13;5085696;28;20513;-67
2023/08/20 22:02:53;;;;;;;9.70;7.03;;;;;;;23.43;74.84;101475.00;5080152;28;20052;-68
2023/08/20 22:05:21;;;;;;;10.65;7.03;;;;;;;23.43;75.95;101480.38;5078320;28;20058;-67
2023/08/20 22:07:50;;;;;;;12.40;7.43;;;;;;;23.39;77.91;101478.97;5080622;28;20052;-67
2023/08/20 22:10:18;;;;;;;12.88;7.80;;;;;;;23.35;79.14;101482.97;5079276;28;20044;-66
2023/08/20 22:12:47;;;;;;;13.05;7.38;;;;;;;23.34;79.86;101481.28;5061293;28;20072;-67
2023/08/20 22:15:14;;;;;;;11.20;7.18;;;;;;;23.33;79.96;101482.28;5049839;28;20048;-66
2023/08/20 22:17:41;;;;;;;10.40;8.05;;;;;;;23.32;80.61;101478.72;5047980;28;20146;-66
2023/08/20 22:20:10;;;;;;;9.13;7.13;;;;;;;23.32;80.67;101489.47;5076793;28;20140;-67
2023/08/20 22:22:38;;;;;;;10.57;8.07;;;;;;;23.30;81.75;101488.78;5079836;28;20052;-68
2023/08/20 22:25:07;;;;;;;12.57;7.55;;;;;;;23.28;81.85;101487.25;5089700;28;20048;-65
2023/08/20 22:27:37;;;;;;;14.50;7.25;;;;;;;23.25;82.25;101491.94;5081631;28;20139;-68
2023/08/20 22:30:08;;;;;;;9.82;7.20;;;;;;;23.23;83.10;101488.53;5087243;28;20086;-67
2023/08/20 22:32:35;;;;;;;13.77;8.18;;;;;;;23.19;84.68;101489.00;5085215;28;20070;-66
2023/08/20 22:35:03;;;;;;;10.57;7.32;;;;;;;23.14;84.42;101489.44;5082629;28;20051;-65
2023/08/20 22:37:30;;;;;;;9.60;7.70;;;;;;;23.12;85.20;101488.78;5078700;28;20044;-65
2023/08/20 22:39:57;;;;;;;9.55;8.07;;;;;;;23.10;85.35;101489.91;5082690;28;20040;-66
2023/08/20 22:42:25;;;;;;;10.40;8.15;;;;;;;23.06;86.46;101497.44;5085243;28;20057;-68
2023/08/20 22:44:52;;;;;;;9.65;7.85;;;;;;;23.02;86.01;101504.09;5083197;28;20066;-67
2023/08/20 22:47:19;;;;;;;11.82;8.15;;;;;;;22.99;86.72;101499.88;5080019;28;20060;-68
2023/08/20 22:49:46;;;;;;;13.63;8.60;;;;;;;22.95;86.92;101498.47;5087558;28;20048;-69
2023/08/20 22:52:15;;;;;;;13.18;8.30;;;;;;;22.92;87.24;101496.13;5086059;28;20165;-68
2023/08/20 22:54:42;;;;;;;15.00;8.48;;;;;;;22.89;87.22;101487.47;5086969;28;20138;-67
2023/08/20 22:57:09;;;;;;;10.10;8.55;;;;;;;22.84;87.63;101490.59;5082683;28;20105;-68
2023/08/20 22:59:36;;;;;;;15.93;8.68;;;;;;;22.79;87.79;101478.63;5086744;28;20066;-68
2023/08/20 23:02:04;;;;;;;9.93;8.13;;;;;;;22.71;88.42;101485.56;5088334;28;20054;-66
2023/08/20 23:04:32;;;;;;;12.63;8.63;;;;;;;22.65;88.51;101483.50;5078160;28;20060;-68
2023/08/20 23:06:59;;;;;;;10.80;7.82;;;;;;;22.60;89.13;101487.59;5078756;28;20056;-67
2023/08/20 23:09:26;;;;;;;10.13;7.57;;;;;;;22.58;89.01;101484.22;5086364;28;20052;-66